sensor_id;sensor_type;location;lat;lon;timestamp;P1;durP1;ratioP1;P2;durP2;ratioP2
41233;SDS011;26968;42.686;23.352;2022-09-09T00:02:01;21.33;;;9.50;;
41233;SDS011;26968;42.686;23.352;2022-09-09T00:04:33;18.48;;;9.55;;
41233;SDS011;26968;42.686;23.352;2022-09-09T00:12:42;18.92;;;9.85;;
41233;SDS011;26968;42.686;23.352;2022-09-09T00:15:22;17.27;;;10.07;;
41233;SDS011;26968;42.686;23.352;2022-09-09T00:18:05;16.48;;;9.10;;
41233;SDS011;26968;42.686;23.352;2022-09-09T00:20:44;14.70;;;9.10;;
41233;SDS011;26968;42.686;23.352;2022-09-09T00:28:38;15.52;;;9.68;;
41233;SDS011;26968;42.686;23.352;2022-09-09T00:31:11;15.27;;;10.13;;
41233;SDS011;26968;42.686;23.352;2022-09-09T00:33:39;14.20;;;8.88;;
41233;SDS011;26968;42.686;23.352;2022-09-09T00:36:09;17.98;;;9.35;;
41233;SDS011;26968;42.686;23.352;2022-09-09T00:38:42;19.30;;;10.85;;
41233;SDS011;26968;42.686;23.352;2022-09-09T00:41:22;17.08;;;10.10;;
41233;SDS011;26968;42.686;23.352;2022-09-09T00:52:55;14.00;;;10.25;;
41233;SDS011;26968;42.686;23.352;2022-09-09T00:55:34;18.08;;;10.18;;
41233;SDS011;26968;42.686;23.352;2022-09-09T00:58:10;18.90;;;10.13;;
41233;SDS011;26968;42.686;23.352;2022-09-09T01:03:35;14.45;;;9.57;;
41233;SDS011;26968;42.686;23.352;2022-09-09T01:11:35;22.05;;;10.13;;
41233;SDS011;26968;42.686;23.352;2022-09-09T01:16:59;17.02;;;9.88;;
41233;SDS011;26968;42.686;23.352;2022-09-09T01:22:11;17.30;;;10.80;;
41233;SDS011;26968;42.686;23.352;2022-09-09T01:27:38;17.70;;;10.10;;
41233;SDS011;26968;42.686;23.352;2022-09-09T01:30:10;17.63;;;10.70;;
41233;SDS011;26968;42.686;23.352;2022-09-09T01:35:28;16.15;;;11.02;;
41233;SDS011;26968;42.686;23.352;2022-09-09T01:38:03;14.45;;;10.10;;
41233;SDS011;26968;42.686;23.352;2022-09-09T01:40:29;19.35;;;10.32;;
41233;SDS011;26968;42.686;23.352;2022-09-09T01:42:54;18.35;;;10.40;;
41233;SDS011;26968;42.686;23.352;2022-09-09T01:45:21;13.45;;;10.30;;
41233;SDS011;26968;42.686;23.352;2022-09-09T01:47:48;14.45;;;10.18;;
41233;SDS011;26968;42.686;23.352;2022-09-09T01:50:15;15.70;;;10.45;;
41233;SDS011;26968;42.686;23.352;2022-09-09T01:52:41;18.45;;;10.13;;
41233;SDS011;26968;42.686;23.352;2022-09-09T01:55:11;19.67;;;11.10;;
41233;SDS011;26968;42.686;23.352;2022-09-09T01:57:39;16.73;;;11.00;;
41233;SDS011;26968;42.686;23.352;2022-09-09T02:00:15;20.23;;;11.52;;
41233;SDS011;26968;42.686;23.352;2022-09-09T02:03:43;23.58;;;10.85;;
41233;SDS011;26968;42.686;23.352;2022-09-09T02:05:52;23.08;;;10.85;;
41233;SDS011;26968;42.686;23.352;2022-09-09T02:08:29;21.45;;;10.88;;
41233;SDS011;26968;42.686;23.352;2022-09-09T02:13:38;18.98;;;10.63;;
41233;SDS011;26968;42.686;23.352;2022-09-09T02:16:08;14.32;;;10.32;;
41233;SDS011;26968;42.686;23.352;2022-09-09T02:21:26;17.92;;;10.05;;
41233;SDS011;26968;42.686;23.352;2022-09-09T02:23:54;19.88;;;10.48;;
41233;SDS011;26968;42.686;23.352;2022-09-09T02:26:24;19.05;;;10.35;;
41233;SDS011;26968;42.686;23.352;2022-09-09T02:28:52;15.48;;;10.43;;
41233;SDS011;26968;42.686;23.352;2022-09-09T02:31:22;25.35;;;11.05;;
41233;SDS011;26968;42.686;23.352;2022-09-09T02:33:56;21.17;;;10.98;;
41233;SDS011;26968;42.686;23.352;2022-09-09T02:36:26;18.58;;;11.07;;
41233;SDS011;26968;42.686;23.352;2022-09-09T02:38:56;19.65;;;11.68;;
41233;SDS011;26968;42.686;23.352;2022-09-09T02:41:43;13.30;;;9.70;;
41233;SDS011;26968;42.686;23.352;2022-09-09T02:44:11;21.10;;;12.23;;
41233;SDS011;26968;42.686;23.352;2022-09-09T02:46:50;14.88;;;10.80;;
41233;SDS011;26968;42.686;23.352;2022-09-09T02:53:29;21.80;;;11.77;;
41233;SDS011;26968;42.686;23.352;2022-09-09T02:55:49;24.50;;;11.63;;
41233;SDS011;26968;42.686;23.352;2022-09-09T02:58:23;15.80;;;10.35;;
41233;SDS011;26968;42.686;23.352;2022-09-09T03:00:50;18.15;;;11.40;;
41233;SDS011;26968;42.686;23.352;2022-09-09T03:03:17;20.00;;;11.10;;
41233;SDS011;26968;42.686;23.352;2022-09-09T03:05:44;24.38;;;10.55;;
41233;SDS011;26968;42.686;23.352;2022-09-09T03:08:10;21.77;;;10.00;;
41233;SDS011;26968;42.686;23.352;2022-09-09T03:10:38;15.95;;;10.48;;
41233;SDS011;26968;42.686;23.352;2022-09-09T03:13:03;18.27;;;11.45;;
41233;SDS011;26968;42.686;23.352;2022-09-09T03:15:30;15.27;;;11.60;;
41233;SDS011;26968;42.686;23.352;2022-09-09T03:17:57;20.13;;;11.57;;
41233;SDS011;26968;42.686;23.352;2022-09-09T03:20:24;16.25;;;10.95;;
41233;SDS011;26968;42.686;23.352;2022-09-09T03:22:51;15.05;;;11.45;;
41233;SDS011;26968;42.686;23.352;2022-09-09T03:25:18;18.58;;;11.63;;
41233;SDS011;26968;42.686;23.352;2022-09-09T03:27:44;16.85;;;11.02;;
41233;SDS011;26968;42.686;23.352;2022-09-09T03:30:09;18.38;;;10.30;;
41233;SDS011;26968;42.686;23.352;2022-09-09T03:32:35;21.20;;;11.02;;
41233;SDS011;26968;42.686;23.352;2022-09-09T03:35:01;16.55;;;11.02;;
41233;SDS011;26968;42.686;23.352;2022-09-09T03:37:26;12.88;;;10.30;;
41233;SDS011;26968;42.686;23.352;2022-09-09T03:39:52;21.83;;;11.90;;
41233;SDS011;26968;42.686;23.352;2022-09-09T03:42:19;19.65;;;11.30;;
41233;SDS011;26968;42.686;23.352;2022-09-09T03:44:48;14.30;;;11.20;;
41233;SDS011;26968;42.686;23.352;2022-09-09T03:47:15;16.33;;;11.55;;
41233;SDS011;26968;42.686;23.352;2022-09-09T03:49:49;21.45;;;11.77;;
41233;SDS011;26968;42.686;23.352;2022-09-09T03:52:15;22.48;;;11.57;;
41233;SDS011;26968;42.686;23.352;2022-09-09T03:54:41;15.95;;;11.50;;
41233;SDS011;26968;42.686;23.352;2022-09-09T03:57:08;18.02;;;11.25;;
41233;SDS011;26968;42.686;23.352;2022-09-09T03:59:34;17.77;;;11.38;;
41233;SDS011;26968;42.686;23.352;2022-09-09T04:02:00;16.10;;;10.95;;
41233;SDS011;26968;42.686;23.352;2022-09-09T04:04:26;24.27;;;11.05;;
41233;SDS011;26968;42.686;23.352;2022-09-09T04:06:52;14.68;;;11.02;;
41233;SDS011;26968;42.686;23.352;2022-09-09T04:09:18;24.55;;;12.02;;
41233;SDS011;26968;42.686;23.352;2022-09-09T04:11:43;16.35;;;11.35;;
41233;SDS011;26968;42.686;23.352;2022-09-09T04:14:09;19.50;;;11.23;;
41233;SDS011;26968;42.686;23.352;2022-09-09T04:16:34;21.98;;;12.68;;
41233;SDS011;26968;42.686;23.352;2022-09-09T04:19:02;25.23;;;12.85;;
41233;SDS011;26968;42.686;23.352;2022-09-09T04:21:29;21.13;;;11.85;;
41233;SDS011;26968;42.686;23.352;2022-09-09T04:23:55;18.13;;;12.27;;
41233;SDS011;26968;42.686;23.352;2022-09-09T04:26:21;23.77;;;11.85;;
41233;SDS011;26968;42.686;23.352;2022-09-09T04:28:47;21.63;;;12.65;;
41233;SDS011;26968;42.686;23.352;2022-09-09T04:31:17;29.73;;;12.43;;
41233;SDS011;26968;42.686;23.352;2022-09-09T04:33:45;21.60;;;12.23;;
41233;SDS011;26968;42.686;23.352;2022-09-09T04:36:12;19.77;;;12.02;;
41233;SDS011;26968;42.686;23.352;2022-09-09T04:38:38;21.02;;;12.20;;
41233;SDS011;26968;42.686;23.352;2022-09-09T04:41:04;17.98;;;11.10;;
41233;SDS011;26968;42.686;23.352;2022-09-09T04:43:30;22.25;;;10.75;;
41233;SDS011;26968;42.686;23.352;2022-09-09T04:45:56;23.55;;;12.25;;
41233;SDS011;26968;42.686;23.352;2022-09-09T04:48:22;15.75;;;10.60;;
41233;SDS011;26968;42.686;23.352;2022-09-09T04:50:59;18.40;;;11.63;;
41233;SDS011;26968;42.686;23.352;2022-09-09T04:53:30;20.75;;;11.65;;
41233;SDS011;26968;42.686;23.352;2022-09-09T04:56:03;19.58;;;10.75;;
41233;SDS011;26968;42.686;23.352;2022-09-09T04:58:29;20.85;;;11.65;;
41233;SDS011;26968;42.686;23.352;2022-09-09T05:01:01;22.42;;;11.85;;
41233;SDS011;26968;42.686;23.352;2022-09-09T05:03:28;28.50;;;11.18;;
41233;SDS011;26968;42.686;23.352;2022-09-09T05:05:53;19.00;;;11.48;;
41233;SDS011;26968;42.686;23.352;2022-09-09T05:08:33;19.60;;;12.48;;
41233;SDS011;26968;42.686;23.352;2022-09-09T05:10:59;26.83;;;11.48;;
41233;SDS011;26968;42.686;23.352;2022-09-09T05:13:28;20.10;;;12.07;;
41233;SDS011;26968;42.686;23.352;2022-09-09T05:15:54;21.70;;;12.90;;
41233;SDS011;26968;42.686;23.352;2022-09-09T05:18:20;30.33;;;13.00;;
41233;SDS011;26968;42.686;23.352;2022-09-09T05:20:47;27.10;;;12.25;;
41233;SDS011;26968;42.686;23.352;2022-09-09T05:23:13;23.48;;;13.45;;
41233;SDS011;26968;42.686;23.352;2022-09-09T05:25:39;26.15;;;14.05;;
41233;SDS011;26968;42.686;23.352;2022-09-09T05:28:08;24.95;;;12.82;;
41233;SDS011;26968;42.686;23.352;2022-09-09T05:30:36;36.40;;;13.68;;
41233;SDS011;26968;42.686;23.352;2022-09-09T05:33:01;23.88;;;13.50;;
41233;SDS011;26968;42.686;23.352;2022-09-09T05:35:27;24.58;;;13.60;;
41233;SDS011;26968;42.686;23.352;2022-09-09T05:37:52;28.65;;;13.60;;
41233;SDS011;26968;42.686;23.352;2022-09-09T05:40:18;22.73;;;12.65;;
41233;SDS011;26968;42.686;23.352;2022-09-09T05:42:43;32.10;;;13.07;;
41233;SDS011;26968;42.686;23.352;2022-09-09T05:45:09;28.90;;;14.50;;
41233;SDS011;26968;42.686;23.352;2022-09-09T05:47:35;20.30;;;13.10;;
41233;SDS011;26968;42.686;23.352;2022-09-09T05:50:02;26.10;;;14.25;;
41233;SDS011;26968;42.686;23.352;2022-09-09T05:52:29;26.55;;;13.35;;
41233;SDS011;26968;42.686;23.352;2022-09-09T05:54:55;19.98;;;13.00;;
41233;SDS011;26968;42.686;23.352;2022-09-09T05:57:21;24.13;;;12.63;;
41233;SDS011;26968;42.686;23.352;2022-09-09T05:59:47;26.02;;;13.20;;
41233;SDS011;26968;42.686;23.352;2022-09-09T06:02:13;24.42;;;11.85;;
41233;SDS011;26968;42.686;23.352;2022-09-09T06:04:42;16.80;;;10.63;;
41233;SDS011;26968;42.686;23.352;2022-09-09T06:07:07;15.88;;;10.05;;
41233;SDS011;26968;42.686;23.352;2022-09-09T06:09:36;15.07;;;9.23;;
41233;SDS011;26968;42.686;23.352;2022-09-09T06:12:02;16.33;;;7.55;;
41233;SDS011;26968;42.686;23.352;2022-09-09T06:14:36;21.23;;;7.80;;
41233;SDS011;26968;42.686;23.352;2022-09-09T06:17:05;13.73;;;6.95;;
41233;SDS011;26968;42.686;23.352;2022-09-09T06:19:30;14.23;;;7.22;;
41233;SDS011;26968;42.686;23.352;2022-09-09T06:22:18;19.25;;;6.75;;
41233;SDS011;26968;42.686;23.352;2022-09-09T06:24:43;12.10;;;7.13;;
41233;SDS011;26968;42.686;23.352;2022-09-09T06:27:09;14.50;;;7.68;;
41233;SDS011;26968;42.686;23.352;2022-09-09T06:29:35;21.50;;;7.72;;
41233;SDS011;26968;42.686;23.352;2022-09-09T06:32:02;17.50;;;8.07;;
41233;SDS011;26968;42.686;23.352;2022-09-09T06:34:28;18.52;;;7.65;;
41233;SDS011;26968;42.686;23.352;2022-09-09T06:36:53;17.15;;;7.93;;
41233;SDS011;26968;42.686;23.352;2022-09-09T06:39:22;16.70;;;7.63;;
41233;SDS011;26968;42.686;23.352;2022-09-09T06:41:48;13.75;;;6.43;;
41233;SDS011;26968;42.686;23.352;2022-09-09T06:44:18;15.70;;;6.53;;
41233;SDS011;26968;42.686;23.352;2022-09-09T06:46:44;14.48;;;6.43;;
41233;SDS011;26968;42.686;23.352;2022-09-09T06:49:12;14.77;;;6.05;;
41233;SDS011;26968;42.686;23.352;2022-09-09T06:51:52;16.08;;;5.63;;
41233;SDS011;26968;42.686;23.352;2022-09-09T06:54:41;9.70;;;5.80;;
41233;SDS011;26968;42.686;23.352;2022-09-09T06:57:06;12.05;;;5.57;;
41233;SDS011;26968;42.686;23.352;2022-09-09T06:59:32;12.80;;;5.45;;
41233;SDS011;26968;42.686;23.352;2022-09-09T07:02:08;14.88;;;5.75;;
41233;SDS011;26968;42.686;23.352;2022-09-09T07:04:37;17.75;;;5.25;;
41233;SDS011;26968;42.686;23.352;2022-09-09T07:07:08;15.30;;;7.25;;
41233;SDS011;26968;42.686;23.352;2022-09-09T07:09:37;10.90;;;5.63;;
41233;SDS011;26968;42.686;23.352;2022-09-09T07:12:03;12.52;;;5.65;;
41233;SDS011;26968;42.686;23.352;2022-09-09T07:14:29;13.95;;;6.07;;
41233;SDS011;26968;42.686;23.352;2022-09-09T07:17:04;23.58;;;6.20;;
41233;SDS011;26968;42.686;23.352;2022-09-09T07:19:38;10.20;;;5.22;;
41233;SDS011;26968;42.686;23.352;2022-09-09T07:22:08;14.18;;;6.57;;
41233;SDS011;26968;42.686;23.352;2022-09-09T07:24:58;10.20;;;6.47;;
41233;SDS011;26968;42.686;23.352;2022-09-09T07:27:27;10.48;;;6.28;;
41233;SDS011;26968;42.686;23.352;2022-09-09T07:29:52;10.63;;;5.68;;
41233;SDS011;26968;42.686;23.352;2022-09-09T07:32:31;13.05;;;6.18;;
41233;SDS011;26968;42.686;23.352;2022-09-09T07:40:40;17.83;;;5.95;;
41233;SDS011;26968;42.686;23.352;2022-09-09T07:43:07;11.88;;;6.13;;
41233;SDS011;26968;42.686;23.352;2022-09-09T07:45:37;11.57;;;5.47;;
41233;SDS011;26968;42.686;23.352;2022-09-09T07:48:48;13.38;;;5.95;;
41233;SDS011;26968;42.686;23.352;2022-09-09T07:51:27;10.75;;;5.45;;
41233;SDS011;26968;42.686;23.352;2022-09-09T07:54:06;22.08;;;5.60;;
41233;SDS011;26968;42.686;23.352;2022-09-09T07:56:36;13.05;;;5.40;;
41233;SDS011;26968;42.686;23.352;2022-09-09T07:59:02;11.93;;;5.50;;
41233;SDS011;26968;42.686;23.352;2022-09-09T08:01:39;11.20;;;5.20;;
41233;SDS011;26968;42.686;23.352;2022-09-09T08:04:14;11.75;;;6.03;;
41233;SDS011;26968;42.686;23.352;2022-09-09T08:06:58;16.00;;;5.63;;
41233;SDS011;26968;42.686;23.352;2022-09-09T08:09:26;9.88;;;5.95;;
41233;SDS011;26968;42.686;23.352;2022-09-09T08:11:54;15.20;;;5.72;;
41233;SDS011;26968;42.686;23.352;2022-09-09T08:14:21;13.73;;;6.05;;
41233;SDS011;26968;42.686;23.352;2022-09-09T08:16:48;9.82;;;5.65;;
41233;SDS011;26968;42.686;23.352;2022-09-09T08:19:15;8.27;;;5.80;;
41233;SDS011;26968;42.686;23.352;2022-09-09T08:21:43;13.52;;;5.95;;
41233;SDS011;26968;42.686;23.352;2022-09-09T08:30:20;11.27;;;5.10;;
41233;SDS011;26968;42.686;23.352;2022-09-09T08:32:48;11.70;;;5.57;;
41233;SDS011;26968;42.686;23.352;2022-09-09T08:35:16;14.77;;;5.75;;
41233;SDS011;26968;42.686;23.352;2022-09-09T08:37:42;14.60;;;5.82;;
41233;SDS011;26968;42.686;23.352;2022-09-09T08:40:09;12.38;;;6.68;;
41233;SDS011;26968;42.686;23.352;2022-09-09T08:42:50;13.30;;;6.38;;
41233;SDS011;26968;42.686;23.352;2022-09-09T08:45:28;11.57;;;4.97;;
41233;SDS011;26968;42.686;23.352;2022-09-09T08:48:10;11.07;;;5.97;;
41233;SDS011;26968;42.686;23.352;2022-09-09T08:51:03;11.43;;;6.03;;
41233;SDS011;26968;42.686;23.352;2022-09-09T08:53:42;11.05;;;5.57;;
41233;SDS011;26968;42.686;23.352;2022-09-09T08:56:18;10.80;;;6.00;;
41233;SDS011;26968;42.686;23.352;2022-09-09T08:58:50;8.95;;;5.80;;
41233;SDS011;26968;42.686;23.352;2022-09-09T09:01:34;11.32;;;5.85;;
41233;SDS011;26968;42.686;23.352;2022-09-09T09:09:23;10.90;;;6.15;;
41233;SDS011;26968;42.686;23.352;2022-09-09T09:12:44;8.48;;;5.55;;
41233;SDS011;26968;42.686;23.352;2022-09-09T09:15:15;13.77;;;5.78;;
41233;SDS011;26968;42.686;23.352;2022-09-09T09:17:47;9.00;;;5.53;;
41233;SDS011;26968;42.686;23.352;2022-09-09T09:23:59;12.00;;;4.88;;
41233;SDS011;26968;42.686;23.352;2022-09-09T09:26:34;21.48;;;5.95;;
41233;SDS011;26968;42.686;23.352;2022-09-09T09:29:00;21.08;;;6.45;;
41233;SDS011;26968;42.686;23.352;2022-09-09T09:31:48;11.93;;;6.07;;
41233;SDS011;26968;42.686;23.352;2022-09-09T09:34:27;9.15;;;6.32;;
41233;SDS011;26968;42.686;23.352;2022-09-09T09:37:07;10.07;;;5.65;;
41233;SDS011;26968;42.686;23.352;2022-09-09T09:39:50;8.60;;;5.53;;
41233;SDS011;26968;42.686;23.352;2022-09-09T09:42:17;11.45;;;5.60;;
41233;SDS011;26968;42.686;23.352;2022-09-09T09:47:23;11.48;;;6.00;;
41233;SDS011;26968;42.686;23.352;2022-09-09T09:49:59;10.80;;;6.20;;
41233;SDS011;26968;42.686;23.352;2022-09-09T09:52:56;17.33;;;6.03;;
41233;SDS011;26968;42.686;23.352;2022-09-09T09:55:34;12.60;;;5.85;;
41233;SDS011;26968;42.686;23.352;2022-09-09T09:58:29;17.67;;;10.40;;
41233;SDS011;26968;42.686;23.352;2022-09-09T10:01:26;8.75;;;5.90;;
41233;SDS011;26968;42.686;23.352;2022-09-09T10:07:18;12.43;;;5.75;;
41233;SDS011;26968;42.686;23.352;2022-09-09T10:10:25;10.32;;;5.78;;
41233;SDS011;26968;42.686;23.352;2022-09-09T10:19:33;9.90;;;5.55;;
41233;SDS011;26968;42.686;23.352;2022-09-09T10:34:19;18.17;;;6.60;;
41233;SDS011;26968;42.686;23.352;2022-09-09T10:37:44;19.33;;;6.63;;
41233;SDS011;26968;42.686;23.352;2022-09-09T11:01:33;17.60;;;7.43;;
41233;SDS011;26968;42.686;23.352;2022-09-09T11:04:08;17.08;;;8.23;;
41233;SDS011;26968;42.686;23.352;2022-09-09T11:06:54;16.85;;;8.30;;
41233;SDS011;26968;42.686;23.352;2022-09-09T11:09:30;19.38;;;7.82;;
41233;SDS011;26968;42.686;23.352;2022-09-09T11:12:06;14.95;;;8.45;;
41233;SDS011;26968;42.686;23.352;2022-09-09T11:17:46;14.57;;;7.85;;
41233;SDS011;26968;42.686;23.352;2022-09-09T11:26:36;17.42;;;9.07;;
41233;SDS011;26968;42.686;23.352;2022-09-09T11:29:34;21.73;;;8.00;;
41233;SDS011;26968;42.686;23.352;2022-09-09T11:35:26;22.88;;;9.35;;
41233;SDS011;26968;42.686;23.352;2022-09-09T11:38:28;22.58;;;7.70;;
41233;SDS011;26968;42.686;23.352;2022-09-09T11:44:38;21.30;;;8.43;;
41233;SDS011;26968;42.686;23.352;2022-09-09T11:47:24;22.15;;;8.02;;
41233;SDS011;26968;42.686;23.352;2022-09-09T11:49:51;22.35;;;8.70;;
41233;SDS011;26968;42.686;23.352;2022-09-09T11:52:25;22.73;;;8.35;;
41233;SDS011;26968;42.686;23.352;2022-09-09T11:55:29;16.88;;;8.57;;
41233;SDS011;26968;42.686;23.352;2022-09-09T11:58:01;23.25;;;9.95;;
41233;SDS011;26968;42.686;23.352;2022-09-09T12:00:48;26.40;;;8.77;;
41233;SDS011;26968;42.686;23.352;2022-09-09T12:09:06;27.50;;;8.50;;
41233;SDS011;26968;42.686;23.352;2022-09-09T12:11:41;18.70;;;8.52;;
41233;SDS011;26968;42.686;23.352;2022-09-09T12:14:23;17.50;;;8.75;;
41233;SDS011;26968;42.686;23.352;2022-09-09T12:19:39;18.92;;;9.07;;
41233;SDS011;26968;42.686;23.352;2022-09-09T12:28:02;14.90;;;7.30;;
41233;SDS011;26968;42.686;23.352;2022-09-09T12:30:31;17.23;;;7.82;;
41233;SDS011;26968;42.686;23.352;2022-09-09T12:33:06;19.42;;;7.88;;
41233;SDS011;26968;42.686;23.352;2022-09-09T12:35:38;18.55;;;7.88;;
41233;SDS011;26968;42.686;23.352;2022-09-09T12:38:05;27.52;;;8.25;;
41233;SDS011;26968;42.686;23.352;2022-09-09T12:43:14;19.48;;;8.27;;
41233;SDS011;26968;42.686;23.352;2022-09-09T12:45:42;17.52;;;8.02;;
41233;SDS011;26968;42.686;23.352;2022-09-09T12:48:10;20.67;;;8.05;;
41233;SDS011;26968;42.686;23.352;2022-09-09T12:50:50;14.90;;;7.95;;
41233;SDS011;26968;42.686;23.352;2022-09-09T12:55:49;19.15;;;7.40;;
41233;SDS011;26968;42.686;23.352;2022-09-09T12:58:17;16.27;;;7.93;;
41233;SDS011;26968;42.686;23.352;2022-09-09T13:00:54;19.75;;;8.05;;
41233;SDS011;26968;42.686;23.352;2022-09-09T13:03:22;15.43;;;8.80;;
41233;SDS011;26968;42.686;23.352;2022-09-09T13:05:48;22.85;;;7.50;;
41233;SDS011;26968;42.686;23.352;2022-09-09T13:08:15;20.50;;;8.27;;
41233;SDS011;26968;42.686;23.352;2022-09-09T13:13:25;15.25;;;7.68;;
41233;SDS011;26968;42.686;23.352;2022-09-09T13:15:53;26.10;;;8.18;;
41233;SDS011;26968;42.686;23.352;2022-09-09T13:18:25;18.13;;;8.50;;
41233;SDS011;26968;42.686;23.352;2022-09-09T13:20:53;15.90;;;8.38;;
41233;SDS011;26968;42.686;23.352;2022-09-09T13:23:21;16.45;;;8.50;;
41233;SDS011;26968;42.686;23.352;2022-09-09T13:25:57;28.02;;;9.25;;
41233;SDS011;26968;42.686;23.352;2022-09-09T13:28:25;17.67;;;8.63;;
41233;SDS011;26968;42.686;23.352;2022-09-09T13:33:35;18.67;;;7.90;;
41233;SDS011;26968;42.686;23.352;2022-09-09T13:36:06;15.68;;;8.30;;
41233;SDS011;26968;42.686;23.352;2022-09-09T13:38:35;18.27;;;7.55;;
41233;SDS011;26968;42.686;23.352;2022-09-09T13:41:19;15.05;;;7.00;;
41233;SDS011;26968;42.686;23.352;2022-09-09T13:43:46;16.10;;;7.27;;
41233;SDS011;26968;42.686;23.352;2022-09-09T13:48:57;19.23;;;7.78;;
41233;SDS011;26968;42.686;23.352;2022-09-09T13:51:34;13.20;;;7.60;;
41233;SDS011;26968;42.686;23.352;2022-09-09T13:54:08;18.33;;;8.02;;
41233;SDS011;26968;42.686;23.352;2022-09-09T13:56:35;22.75;;;8.32;;
41233;SDS011;26968;42.686;23.352;2022-09-09T13:59:02;14.00;;;8.82;;
41233;SDS011;26968;42.686;23.352;2022-09-09T14:01:29;22.77;;;7.65;;
41233;SDS011;26968;42.686;23.352;2022-09-09T14:03:58;20.15;;;8.18;;
41233;SDS011;26968;42.686;23.352;2022-09-09T14:06:23;14.55;;;7.68;;
41233;SDS011;26968;42.686;23.352;2022-09-09T14:08:49;14.75;;;7.65;;
41233;SDS011;26968;42.686;23.352;2022-09-09T14:11:15;22.38;;;7.68;;
41233;SDS011;26968;42.686;23.352;2022-09-09T14:13:42;18.83;;;7.97;;
41233;SDS011;26968;42.686;23.352;2022-09-09T14:16:09;16.05;;;7.63;;
41233;SDS011;26968;42.686;23.352;2022-09-09T14:18:47;19.08;;;8.02;;
41233;SDS011;26968;42.686;23.352;2022-09-09T14:21:13;18.35;;;7.80;;
41233;SDS011;26968;42.686;23.352;2022-09-09T14:23:40;20.40;;;7.72;;
41233;SDS011;26968;42.686;23.352;2022-09-09T14:26:12;15.82;;;6.95;;
41233;SDS011;26968;42.686;23.352;2022-09-09T14:31:33;17.65;;;7.25;;
41233;SDS011;26968;42.686;23.352;2022-09-09T14:37:16;12.80;;;6.68;;
41233;SDS011;26968;42.686;23.352;2022-09-09T14:40:24;19.55;;;7.95;;
41233;SDS011;26968;42.686;23.352;2022-09-09T14:42:58;18.38;;;6.97;;
41233;SDS011;26968;42.686;23.352;2022-09-09T14:45:24;19.13;;;7.65;;
41233;SDS011;26968;42.686;23.352;2022-09-09T14:47:50;14.98;;;6.90;;
41233;SDS011;26968;42.686;23.352;2022-09-09T14:50:24;24.08;;;7.22;;
41233;SDS011;26968;42.686;23.352;2022-09-09T14:52:49;18.73;;;7.60;;
41233;SDS011;26968;42.686;23.352;2022-09-09T14:55:18;18.27;;;7.15;;
41233;SDS011;26968;42.686;23.352;2022-09-09T14:57:44;19.92;;;7.45;;
41233;SDS011;26968;42.686;23.352;2022-09-09T15:00:10;14.52;;;7.18;;
41233;SDS011;26968;42.686;23.352;2022-09-09T15:02:37;19.00;;;7.57;;
41233;SDS011;26968;42.686;23.352;2022-09-09T15:05:03;15.27;;;7.70;;
41233;SDS011;26968;42.686;23.352;2022-09-09T15:07:29;26.90;;;6.60;;
41233;SDS011;26968;42.686;23.352;2022-09-09T15:09:56;12.52;;;7.05;;
41233;SDS011;26968;42.686;23.352;2022-09-09T15:12:22;30.45;;;8.27;;
41233;SDS011;26968;42.686;23.352;2022-09-09T15:14:49;18.80;;;7.75;;
41233;SDS011;26968;42.686;23.352;2022-09-09T15:17:15;16.90;;;6.80;;
41233;SDS011;26968;42.686;23.352;2022-09-09T15:19:43;18.30;;;7.25;;
41233;SDS011;26968;42.686;23.352;2022-09-09T15:22:08;15.30;;;7.32;;
41233;SDS011;26968;42.686;23.352;2022-09-09T15:24:34;19.77;;;7.20;;
41233;SDS011;26968;42.686;23.352;2022-09-09T15:27:00;14.25;;;7.90;;
41233;SDS011;26968;42.686;23.352;2022-09-09T15:29:28;14.82;;;7.50;;
41233;SDS011;26968;42.686;23.352;2022-09-09T15:31:54;22.15;;;7.13;;
41233;SDS011;26968;42.686;23.352;2022-09-09T15:34:32;16.70;;;7.80;;
41233;SDS011;26968;42.686;23.352;2022-09-09T15:36:58;16.38;;;7.43;;
41233;SDS011;26968;42.686;23.352;2022-09-09T15:39:25;16.77;;;6.75;;
41233;SDS011;26968;42.686;23.352;2022-09-09T15:41:54;19.52;;;7.20;;
41233;SDS011;26968;42.686;23.352;2022-09-09T15:44:19;16.20;;;7.50;;
41233;SDS011;26968;42.686;23.352;2022-09-09T15:46:47;17.00;;;7.55;;
41233;SDS011;26968;42.686;23.352;2022-09-09T15:49:16;21.13;;;8.35;;
41233;SDS011;26968;42.686;23.352;2022-09-09T15:51:47;19.15;;;8.68;;
41233;SDS011;26968;42.686;23.352;2022-09-09T15:54:22;22.65;;;8.43;;
41233;SDS011;26968;42.686;23.352;2022-09-09T15:56:53;21.88;;;8.73;;
41233;SDS011;26968;42.686;23.352;2022-09-09T15:59:21;16.45;;;7.88;;
41233;SDS011;26968;42.686;23.352;2022-09-09T16:01:49;15.30;;;8.27;;
41233;SDS011;26968;42.686;23.352;2022-09-09T16:04:18;21.80;;;8.45;;
41233;SDS011;26968;42.686;23.352;2022-09-09T16:06:48;32.97;;;9.17;;
41233;SDS011;26968;42.686;23.352;2022-09-09T16:09:15;18.63;;;9.20;;
41233;SDS011;26968;42.686;23.352;2022-09-09T16:11:41;28.20;;;8.68;;
41233;SDS011;26968;42.686;23.352;2022-09-09T16:14:06;25.25;;;8.93;;
41233;SDS011;26968;42.686;23.352;2022-09-09T16:16:32;21.70;;;9.10;;
41233;SDS011;26968;42.686;23.352;2022-09-09T16:19:00;30.42;;;9.85;;
41233;SDS011;26968;42.686;23.352;2022-09-09T16:21:35;26.73;;;9.65;;
41233;SDS011;26968;42.686;23.352;2022-09-09T16:24:02;21.70;;;8.95;;
41233;SDS011;26968;42.686;23.352;2022-09-09T16:26:34;19.30;;;9.80;;
41233;SDS011;26968;42.686;23.352;2022-09-09T16:29:17;24.63;;;10.30;;
41233;SDS011;26968;42.686;23.352;2022-09-09T16:31:47;33.60;;;10.85;;
41233;SDS011;26968;42.686;23.352;2022-09-09T16:34:14;25.02;;;10.85;;
41233;SDS011;26968;42.686;23.352;2022-09-09T16:36:40;24.92;;;11.40;;
41233;SDS011;26968;42.686;23.352;2022-09-09T16:42:05;28.35;;;11.35;;
41233;SDS011;26968;42.686;23.352;2022-09-09T16:44:30;29.30;;;10.90;;
41233;SDS011;26968;42.686;23.352;2022-09-09T16:46:56;31.63;;;11.30;;
41233;SDS011;26968;42.686;23.352;2022-09-09T16:49:21;29.73;;;11.05;;
41233;SDS011;26968;42.686;23.352;2022-09-09T16:51:49;24.70;;;9.27;;
41233;SDS011;26968;42.686;23.352;2022-09-09T16:54:18;24.65;;;11.07;;
41233;SDS011;26968;42.686;23.352;2022-09-09T16:56:44;31.00;;;11.70;;
41233;SDS011;26968;42.686;23.352;2022-09-09T16:59:15;31.80;;;11.43;;
41233;SDS011;26968;42.686;23.352;2022-09-09T17:01:43;31.48;;;11.35;;
41233;SDS011;26968;42.686;23.352;2022-09-09T17:04:11;35.88;;;12.20;;
41233;SDS011;26968;42.686;23.352;2022-09-09T17:06:40;35.90;;;12.32;;
41233;SDS011;26968;42.686;23.352;2022-09-09T17:09:09;32.05;;;11.90;;
41233;SDS011;26968;42.686;23.352;2022-09-09T17:11:54;33.63;;;12.27;;
41233;SDS011;26968;42.686;23.352;2022-09-09T17:14:20;27.33;;;11.45;;
41233;SDS011;26968;42.686;23.352;2022-09-09T17:16:47;24.33;;;10.60;;
41233;SDS011;26968;42.686;23.352;2022-09-09T17:19:13;22.30;;;11.45;;
41233;SDS011;26968;42.686;23.352;2022-09-09T17:21:38;25.10;;;12.57;;
41233;SDS011;26968;42.686;23.352;2022-09-09T17:24:04;37.65;;;13.80;;
41233;SDS011;26968;42.686;23.352;2022-09-09T17:26:30;28.60;;;12.27;;
41233;SDS011;26968;42.686;23.352;2022-09-09T17:28:58;30.08;;;12.68;;